sensor_id;sensor_type;location;lat;lon;timestamp;P1;durP1;ratioP1;P2;durP2;ratioP2
12220;SDS011;6173;42.024;23.096;2022-08-19T00:01:58;5.27;;;4.50;;
12220;SDS011;6173;42.024;23.096;2022-08-19T00:04:26;4.70;;;4.10;;
12220;SDS011;6173;42.024;23.096;2022-08-19T00:06:54;5.27;;;4.00;;
12220;SDS011;6173;42.024;23.096;2022-08-19T00:09:22;4.43;;;4.03;;
12220;SDS011;6173;42.024;23.096;2022-08-19T00:11:50;5.57;;;4.33;;
12220;SDS011;6173;42.024;23.096;2022-08-19T00:14:19;5.70;;;4.40;;
12220;SDS011;6173;42.024;23.096;2022-08-19T00:16:47;7.23;;;4.57;;
12220;SDS011;6173;42.024;23.096;2022-08-19T00:19:16;4.80;;;4.40;;
12220;SDS011;6173;42.024;23.096;2022-08-19T00:21:43;4.83;;;4.27;;
12220;SDS011;6173;42.024;23.096;2022-08-19T00:24:11;6.00;;;4.40;;
12220;SDS011;6173;42.024;23.096;2022-08-19T00:26:39;4.93;;;4.37;;
12220;SDS011;6173;42.024;23.096;2022-08-19T00:29:09;7.40;;;4.60;;
12220;SDS011;6173;42.024;23.096;2022-08-19T00:31:38;13.33;;;5.13;;
12220;SDS011;6173;42.024;23.096;2022-08-19T00:34:05;7.67;;;4.63;;
12220;SDS011;6173;42.024;23.096;2022-08-19T00:36:32;4.57;;;4.17;;
12220;SDS011;6173;42.024;23.096;2022-08-19T00:38:59;6.13;;;4.43;;
12220;SDS011;6173;42.024;23.096;2022-08-19T00:41:26;5.33;;;4.83;;
12220;SDS011;6173;42.024;23.096;2022-08-19T00:43:57;6.87;;;4.40;;
12220;SDS011;6173;42.024;23.096;2022-08-19T00:46:25;7.73;;;6.67;;
12220;SDS011;6173;42.024;23.096;2022-08-19T00:48:53;5.70;;;4.97;;
12220;SDS011;6173;42.024;23.096;2022-08-19T00:51:22;7.30;;;4.20;;
12220;SDS011;6173;42.024;23.096;2022-08-19T00:53:51;5.37;;;4.37;;
12220;SDS011;6173;42.024;23.096;2022-08-19T00:56:20;9.73;;;4.83;;
12220;SDS011;6173;42.024;23.096;2022-08-19T00:58:47;4.83;;;4.40;;
12220;SDS011;6173;42.024;23.096;2022-08-19T01:01:14;16.23;;;12.87;;
12220;SDS011;6173;42.024;23.096;2022-08-19T01:03:41;7.77;;;4.80;;
12220;SDS011;6173;42.024;23.096;2022-08-19T01:06:09;5.97;;;4.70;;
12220;SDS011;6173;42.024;23.096;2022-08-19T01:08:36;5.07;;;4.57;;
12220;SDS011;6173;42.024;23.096;2022-08-19T01:11:03;5.53;;;4.37;;
12220;SDS011;6173;42.024;23.096;2022-08-19T01:13:32;5.00;;;4.53;;
12220;SDS011;6173;42.024;23.096;2022-08-19T01:16:01;6.73;;;5.03;;
12220;SDS011;6173;42.024;23.096;2022-08-19T01:18:30;5.97;;;4.77;;
12220;SDS011;6173;42.024;23.096;2022-08-19T01:21:00;5.40;;;4.53;;
12220;SDS011;6173;42.024;23.096;2022-08-19T01:23:32;5.70;;;4.67;;
12220;SDS011;6173;42.024;23.096;2022-08-19T01:26:09;6.03;;;4.70;;
12220;SDS011;6173;42.024;23.096;2022-08-19T01:28:39;4.90;;;4.40;;
12220;SDS011;6173;42.024;23.096;2022-08-19T01:31:06;7.00;;;4.63;;
12220;SDS011;6173;42.024;23.096;2022-08-19T01:33:36;5.97;;;4.60;;
12220;SDS011;6173;42.024;23.096;2022-08-19T01:36:04;5.03;;;4.63;;
12220;SDS011;6173;42.024;23.096;2022-08-19T01:38:35;7.30;;;4.37;;
12220;SDS011;6173;42.024;23.096;2022-08-19T01:41:04;9.63;;;4.60;;
12220;SDS011;6173;42.024;23.096;2022-08-19T01:43:31;5.00;;;4.50;;
12220;SDS011;6173;42.024;23.096;2022-08-19T01:45:58;6.73;;;5.23;;
12220;SDS011;6173;42.024;23.096;2022-08-19T01:48:25;6.00;;;5.00;;
12220;SDS011;6173;42.024;23.096;2022-08-19T01:50:54;5.60;;;5.10;;
12220;SDS011;6173;42.024;23.096;2022-08-19T01:53:21;5.70;;;5.10;;
12220;SDS011;6173;42.024;23.096;2022-08-19T01:55:49;6.33;;;5.00;;
12220;SDS011;6173;42.024;23.096;2022-08-19T01:58:17;5.50;;;4.80;;
12220;SDS011;6173;42.024;23.096;2022-08-19T02:00:46;7.23;;;5.00;;
12220;SDS011;6173;42.024;23.096;2022-08-19T02:03:13;13.57;;;5.03;;
12220;SDS011;6173;42.024;23.096;2022-08-19T02:05:41;8.17;;;4.87;;
12220;SDS011;6173;42.024;23.096;2022-08-19T02:08:08;5.80;;;5.20;;
12220;SDS011;6173;42.024;23.096;2022-08-19T02:10:38;7.70;;;5.90;;
12220;SDS011;6173;42.024;23.096;2022-08-19T02:13:07;5.87;;;5.27;;
12220;SDS011;6173;42.024;23.096;2022-08-19T02:15:34;6.73;;;5.00;;
12220;SDS011;6173;42.024;23.096;2022-08-19T02:18:01;6.00;;;5.00;;
12220;SDS011;6173;42.024;23.096;2022-08-19T02:20:28;5.57;;;4.93;;
12220;SDS011;6173;42.024;23.096;2022-08-19T02:22:55;5.93;;;5.33;;
12220;SDS011;6173;42.024;23.096;2022-08-19T02:25:21;7.00;;;5.40;;
12220;SDS011;6173;42.024;23.096;2022-08-19T02:27:48;6.47;;;4.80;;
12220;SDS011;6173;42.024;23.096;2022-08-19T02:30:17;6.03;;;4.83;;
12220;SDS011;6173;42.024;23.096;2022-08-19T02:32:44;5.90;;;4.90;;
12220;SDS011;6173;42.024;23.096;2022-08-19T02:35:11;6.53;;;5.23;;
12220;SDS011;6173;42.024;23.096;2022-08-19T02:37:39;9.00;;;5.50;;
12220;SDS011;6173;42.024;23.096;2022-08-19T02:40:24;6.10;;;4.80;;
12220;SDS011;6173;42.024;23.096;2022-08-19T02:42:51;6.13;;;5.03;;
12220;SDS011;6173;42.024;23.096;2022-08-19T02:45:19;5.77;;;4.80;;
12220;SDS011;6173;42.024;23.096;2022-08-19T02:47:46;8.07;;;5.33;;
12220;SDS011;6173;42.024;23.096;2022-08-19T02:50:13;12.80;;;9.67;;
12220;SDS011;6173;42.024;23.096;2022-08-19T02:52:39;8.40;;;5.90;;
12220;SDS011;6173;42.024;23.096;2022-08-19T02:55:07;8.47;;;5.87;;
12220;SDS011;6173;42.024;23.096;2022-08-19T02:57:34;7.60;;;5.10;;
12220;SDS011;6173;42.024;23.096;2022-08-19T03:00:02;5.40;;;4.90;;
12220;SDS011;6173;42.024;23.096;2022-08-19T03:02:32;9.97;;;5.40;;
12220;SDS011;6173;42.024;23.096;2022-08-19T03:04:59;8.57;;;5.13;;
12220;SDS011;6173;42.024;23.096;2022-08-19T03:07:26;7.80;;;4.83;;
12220;SDS011;6173;42.024;23.096;2022-08-19T03:09:53;11.30;;;6.10;;
12220;SDS011;6173;42.024;23.096;2022-08-19T03:12:20;6.60;;;5.77;;
12220;SDS011;6173;42.024;23.096;2022-08-19T03:14:46;5.30;;;4.80;;
12220;SDS011;6173;42.024;23.096;2022-08-19T03:17:13;5.57;;;5.00;;
12220;SDS011;6173;42.024;23.096;2022-08-19T03:19:41;9.07;;;5.10;;
12220;SDS011;6173;42.024;23.096;2022-08-19T03:22:09;6.80;;;5.53;;
12220;SDS011;6173;42.024;23.096;2022-08-19T03:24:35;6.17;;;5.10;;
12220;SDS011;6173;42.024;23.096;2022-08-19T03:27:03;6.93;;;5.23;;
12220;SDS011;6173;42.024;23.096;2022-08-19T03:29:30;14.67;;;5.50;;
12220;SDS011;6173;42.024;23.096;2022-08-19T03:31:58;6.97;;;4.93;;
12220;SDS011;6173;42.024;23.096;2022-08-19T03:34:27;6.57;;;5.30;;
12220;SDS011;6173;42.024;23.096;2022-08-19T03:36:58;6.33;;;5.23;;
12220;SDS011;6173;42.024;23.096;2022-08-19T03:39:29;7.27;;;5.40;;
12220;SDS011;6173;42.024;23.096;2022-08-19T03:41:56;8.07;;;5.10;;
12220;SDS011;6173;42.024;23.096;2022-08-19T03:44:25;7.17;;;5.30;;
12220;SDS011;6173;42.024;23.096;2022-08-19T03:46:52;6.43;;;5.27;;
12220;SDS011;6173;42.024;23.096;2022-08-19T03:49:20;13.77;;;5.13;;
12220;SDS011;6173;42.024;23.096;2022-08-19T03:51:49;6.80;;;5.40;;
12220;SDS011;6173;42.024;23.096;2022-08-19T03:54:19;6.00;;;5.40;;
12220;SDS011;6173;42.024;23.096;2022-08-19T03:56:48;28.83;;;5.70;;
12220;SDS011;6173;42.024;23.096;2022-08-19T03:59:17;10.43;;;5.57;;
12220;SDS011;6173;42.024;23.096;2022-08-19T04:01:46;9.00;;;5.77;;
12220;SDS011;6173;42.024;23.096;2022-08-19T04:04:13;7.03;;;5.43;;
12220;SDS011;6173;42.024;23.096;2022-08-19T04:06:40;9.70;;;5.60;;
12220;SDS011;6173;42.024;23.096;2022-08-19T04:09:08;8.73;;;5.30;;
12220;SDS011;6173;42.024;23.096;2022-08-19T04:11:39;6.57;;;5.87;;
12220;SDS011;6173;42.024;23.096;2022-08-19T04:14:07;7.43;;;5.90;;
12220;SDS011;6173;42.024;23.096;2022-08-19T04:16:34;9.40;;;5.83;;
12220;SDS011;6173;42.024;23.096;2022-08-19T04:19:03;6.50;;;5.60;;
12220;SDS011;6173;42.024;23.096;2022-08-19T04:21:31;7.37;;;5.53;;
12220;SDS011;6173;42.024;23.096;2022-08-19T04:23:59;5.90;;;5.37;;
12220;SDS011;6173;42.024;23.096;2022-08-19T04:26:27;7.97;;;5.33;;
12220;SDS011;6173;42.024;23.096;2022-08-19T04:28:58;9.77;;;5.40;;
12220;SDS011;6173;42.024;23.096;2022-08-19T04:31:27;6.80;;;5.90;;
12220;SDS011;6173;42.024;23.096;2022-08-19T04:33:56;12.33;;;5.47;;
12220;SDS011;6173;42.024;23.096;2022-08-19T04:36:26;11.97;;;6.00;;
12220;SDS011;6173;42.024;23.096;2022-08-19T04:38:55;12.40;;;5.93;;
12220;SDS011;6173;42.024;23.096;2022-08-19T04:41:22;10.67;;;6.83;;
12220;SDS011;6173;42.024;23.096;2022-08-19T04:44:08;12.67;;;6.10;;
12220;SDS011;6173;42.024;23.096;2022-08-19T04:46:36;8.43;;;6.57;;
12220;SDS011;6173;42.024;23.096;2022-08-19T04:49:03;13.47;;;6.27;;
12220;SDS011;6173;42.024;23.096;2022-08-19T04:51:33;10.17;;;6.67;;
12220;SDS011;6173;42.024;23.096;2022-08-19T04:54:02;6.80;;;5.90;;
12220;SDS011;6173;42.024;23.096;2022-08-19T04:56:29;11.80;;;6.90;;
12220;SDS011;6173;42.024;23.096;2022-08-19T04:58:56;9.60;;;7.50;;
12220;SDS011;6173;42.024;23.096;2022-08-19T05:01:25;14.60;;;7.83;;
12220;SDS011;6173;42.024;23.096;2022-08-19T05:03:54;10.07;;;6.80;;
12220;SDS011;6173;42.024;23.096;2022-08-19T05:06:22;7.97;;;6.27;;
12220;SDS011;6173;42.024;23.096;2022-08-19T05:08:50;7.47;;;6.63;;
12220;SDS011;6173;42.024;23.096;2022-08-19T05:11:18;6.93;;;5.70;;
12220;SDS011;6173;42.024;23.096;2022-08-19T05:13:47;7.40;;;5.80;;
12220;SDS011;6173;42.024;23.096;2022-08-19T05:16:15;9.23;;;5.43;;
12220;SDS011;6173;42.024;23.096;2022-08-19T05:18:48;12.97;;;5.87;;
12220;SDS011;6173;42.024;23.096;2022-08-19T05:21:33;8.43;;;6.33;;
12220;SDS011;6173;42.024;23.096;2022-08-19T05:24:19;11.47;;;6.20;;
12220;SDS011;6173;42.024;23.096;2022-08-19T05:26:48;9.63;;;6.47;;
12220;SDS011;6173;42.024;23.096;2022-08-19T05:29:18;9.53;;;6.20;;
12220;SDS011;6173;42.024;23.096;2022-08-19T05:31:46;24.30;;;6.30;;
12220;SDS011;6173;42.024;23.096;2022-08-19T05:34:15;9.27;;;6.30;;
12220;SDS011;6173;42.024;23.096;2022-08-19T05:36:46;9.37;;;6.13;;
12220;SDS011;6173;42.024;23.096;2022-08-19T05:39:16;11.10;;;6.40;;
12220;SDS011;6173;42.024;23.096;2022-08-19T05:41:45;6.17;;;5.57;;
12220;SDS011;6173;42.024;23.096;2022-08-19T05:44:13;9.87;;;6.87;;
12220;SDS011;6173;42.024;23.096;2022-08-19T05:46:42;9.77;;;7.23;;
12220;SDS011;6173;42.024;23.096;2022-08-19T05:49:12;12.90;;;7.40;;
12220;SDS011;6173;42.024;23.096;2022-08-19T05:51:41;14.00;;;7.50;;
12220;SDS011;6173;42.024;23.096;2022-08-19T05:54:09;19.73;;;8.17;;
12220;SDS011;6173;42.024;23.096;2022-08-19T05:56:38;14.23;;;7.47;;
12220;SDS011;6173;42.024;23.096;2022-08-19T05:59:05;20.27;;;7.80;;
12220;SDS011;6173;42.024;23.096;2022-08-19T06:01:34;11.70;;;7.83;;
12220;SDS011;6173;42.024;23.096;2022-08-19T06:04:01;8.03;;;7.23;;
12220;SDS011;6173;42.024;23.096;2022-08-19T06:06:29;10.80;;;6.83;;
12220;SDS011;6173;42.024;23.096;2022-08-19T06:08:57;9.13;;;6.60;;
12220;SDS011;6173;42.024;23.096;2022-08-19T06:11:25;16.00;;;6.83;;
12220;SDS011;6173;42.024;23.096;2022-08-19T06:14:00;10.47;;;6.77;;
12220;SDS011;6173;42.024;23.096;2022-08-19T06:16:28;9.10;;;6.90;;
12220;SDS011;6173;42.024;23.096;2022-08-19T06:18:59;8.63;;;5.90;;
12220;SDS011;6173;42.024;23.096;2022-08-19T06:21:29;9.17;;;6.33;;
12220;SDS011;6173;42.024;23.096;2022-08-19T06:23:58;11.43;;;6.00;;
12220;SDS011;6173;42.024;23.096;2022-08-19T06:26:26;7.10;;;5.40;;
12220;SDS011;6173;42.024;23.096;2022-08-19T06:28:53;8.97;;;5.53;;
12220;SDS011;6173;42.024;23.096;2022-08-19T06:31:26;7.70;;;5.63;;
12220;SDS011;6173;42.024;23.096;2022-08-19T06:33:54;9.40;;;5.70;;
12220;SDS011;6173;42.024;23.096;2022-08-19T06:36:21;9.50;;;6.00;;
12220;SDS011;6173;42.024;23.096;2022-08-19T06:38:52;10.30;;;6.23;;
12220;SDS011;6173;42.024;23.096;2022-08-19T06:41:20;8.87;;;5.70;;
12220;SDS011;6173;42.024;23.096;2022-08-19T06:43:47;27.13;;;7.57;;
12220;SDS011;6173;42.024;23.096;2022-08-19T06:46:14;16.53;;;5.80;;
12220;SDS011;6173;42.024;23.096;2022-08-19T06:48:43;36.50;;;6.97;;
12220;SDS011;6173;42.024;23.096;2022-08-19T06:51:10;15.90;;;6.70;;
12220;SDS011;6173;42.024;23.096;2022-08-19T06:53:37;10.67;;;6.47;;
12220;SDS011;6173;42.024;23.096;2022-08-19T06:56:05;11.77;;;6.20;;
12220;SDS011;6173;42.024;23.096;2022-08-19T06:58:33;11.80;;;7.13;;
12220;SDS011;6173;42.024;23.096;2022-08-19T07:01:00;11.90;;;6.27;;
12220;SDS011;6173;42.024;23.096;2022-08-19T07:03:29;15.70;;;6.27;;
12220;SDS011;6173;42.024;23.096;2022-08-19T07:05:58;14.77;;;6.47;;
12220;SDS011;6173;42.024;23.096;2022-08-19T07:08:28;10.50;;;6.40;;
12220;SDS011;6173;42.024;23.096;2022-08-19T07:10:55;11.00;;;6.53;;
12220;SDS011;6173;42.024;23.096;2022-08-19T07:13:22;10.37;;;6.00;;
12220;SDS011;6173;42.024;23.096;2022-08-19T07:15:51;16.53;;;6.13;;
12220;SDS011;6173;42.024;23.096;2022-08-19T07:18:18;17.73;;;6.60;;
12220;SDS011;6173;42.024;23.096;2022-08-19T07:20:46;11.63;;;6.40;;
12220;SDS011;6173;42.024;23.096;2022-08-19T07:23:13;10.33;;;6.57;;
12220;SDS011;6173;42.024;23.096;2022-08-19T07:25:40;15.23;;;6.40;;
12220;SDS011;6173;42.024;23.096;2022-08-19T07:28:08;13.80;;;6.30;;
12220;SDS011;6173;42.024;23.096;2022-08-19T07:30:38;12.00;;;6.40;;
12220;SDS011;6173;42.024;23.096;2022-08-19T07:33:07;30.93;;;8.00;;
12220;SDS011;6173;42.024;23.096;2022-08-19T07:35:33;22.40;;;7.23;;
12220;SDS011;6173;42.024;23.096;2022-08-19T07:38:00;10.83;;;7.13;;
12220;SDS011;6173;42.024;23.096;2022-08-19T07:40:29;11.10;;;5.87;;
12220;SDS011;6173;42.024;23.096;2022-08-19T07:42:56;20.27;;;8.30;;
12220;SDS011;6173;42.024;23.096;2022-08-19T07:45:23;20.27;;;8.70;;
12220;SDS011;6173;42.024;23.096;2022-08-19T07:47:50;11.50;;;5.53;;
12220;SDS011;6173;42.024;23.096;2022-08-19T07:50:19;10.83;;;6.70;;
12220;SDS011;6173;42.024;23.096;2022-08-19T07:52:47;9.57;;;6.17;;
12220;SDS011;6173;42.024;23.096;2022-08-19T07:55:14;11.43;;;5.77;;
12220;SDS011;6173;42.024;23.096;2022-08-19T07:57:42;10.60;;;5.87;;
12220;SDS011;6173;42.024;23.096;2022-08-19T08:00:09;13.77;;;5.87;;
12220;SDS011;6173;42.024;23.096;2022-08-19T08:02:36;10.67;;;5.67;;
12220;SDS011;6173;42.024;23.096;2022-08-19T08:05:04;8.43;;;5.87;;
12220;SDS011;6173;42.024;23.096;2022-08-19T08:07:46;14.30;;;6.37;;
12220;SDS011;6173;42.024;23.096;2022-08-19T08:10:31;17.30;;;7.33;;
12220;SDS011;6173;42.024;23.096;2022-08-19T08:12:57;12.30;;;6.00;;
12220;SDS011;6173;42.024;23.096;2022-08-19T08:15:24;18.63;;;7.70;;
12220;SDS011;6173;42.024;23.096;2022-08-19T08:17:51;12.40;;;6.00;;
12220;SDS011;6173;42.024;23.096;2022-08-19T08:20:18;11.63;;;6.80;;
12220;SDS011;6173;42.024;23.096;2022-08-19T08:22:47;23.70;;;9.90;;
12220;SDS011;6173;42.024;23.096;2022-08-19T08:25:32;13.20;;;7.60;;
12220;SDS011;6173;42.024;23.096;2022-08-19T08:28:00;15.90;;;6.23;;
12220;SDS011;6173;42.024;23.096;2022-08-19T08:30:28;22.40;;;6.73;;
12220;SDS011;6173;42.024;23.096;2022-08-19T08:32:57;16.67;;;7.27;;
12220;SDS011;6173;42.024;23.096;2022-08-19T08:35:24;12.17;;;5.60;;
12220;SDS011;6173;42.024;23.096;2022-08-19T08:37:53;16.00;;;7.40;;
12220;SDS011;6173;42.024;23.096;2022-08-19T08:40:22;9.60;;;6.03;;
12220;SDS011;6173;42.024;23.096;2022-08-19T08:42:55;13.40;;;5.47;;
12220;SDS011;6173;42.024;23.096;2022-08-19T08:45:25;12.53;;;5.73;;
12220;SDS011;6173;42.024;23.096;2022-08-19T08:47:53;11.90;;;5.93;;
12220;SDS011;6173;42.024;23.096;2022-08-19T08:50:29;13.83;;;6.80;;
12220;SDS011;6173;42.024;23.096;2022-08-19T08:53:03;15.03;;;6.10;;
12220;SDS011;6173;42.024;23.096;2022-08-19T08:55:33;14.33;;;7.07;;
12220;SDS011;6173;42.024;23.096;2022-08-19T08:58:01;15.20;;;7.10;;
12220;SDS011;6173;42.024;23.096;2022-08-19T09:00:32;13.00;;;5.80;;
12220;SDS011;6173;42.024;23.096;2022-08-19T09:03:01;12.70;;;6.27;;
12220;SDS011;6173;42.024;23.096;2022-08-19T09:05:33;8.63;;;5.03;;
12220;SDS011;6173;42.024;23.096;2022-08-19T09:08:10;16.57;;;5.60;;
12220;SDS011;6173;42.024;23.096;2022-08-19T09:10:44;13.20;;;5.27;;
12220;SDS011;6173;42.024;23.096;2022-08-19T09:13:17;13.50;;;5.07;;
12220;SDS011;6173;42.024;23.096;2022-08-19T09:15:52;9.53;;;4.67;;
12220;SDS011;6173;42.024;23.096;2022-08-19T09:18:23;8.00;;;4.20;;
12220;SDS011;6173;42.024;23.096;2022-08-19T09:20:50;6.43;;;4.23;;
12220;SDS011;6173;42.024;23.096;2022-08-19T09:23:18;7.83;;;4.60;;
12220;SDS011;6173;42.024;23.096;2022-08-19T09:25:49;9.63;;;4.37;;
12220;SDS011;6173;42.024;23.096;2022-08-19T09:28:16;10.40;;;4.30;;
12220;SDS011;6173;42.024;23.096;2022-08-19T09:30:43;13.13;;;4.57;;
12220;SDS011;6173;42.024;23.096;2022-08-19T09:33:09;11.23;;;4.87;;
12220;SDS011;6173;42.024;23.096;2022-08-19T09:35:37;9.97;;;4.67;;
12220;SDS011;6173;42.024;23.096;2022-08-19T09:38:03;13.43;;;4.90;;
12220;SDS011;6173;42.024;23.096;2022-08-19T09:40:32;15.07;;;5.07;;
12220;SDS011;6173;42.024;23.096;2022-08-19T09:42:59;10.97;;;5.00;;
12220;SDS011;6173;42.024;23.096;2022-08-19T09:45:27;10.40;;;4.77;;
12220;SDS011;6173;42.024;23.096;2022-08-19T09:47:55;12.03;;;4.90;;
12220;SDS011;6173;42.024;23.096;2022-08-19T09:50:22;9.90;;;4.37;;
12220;SDS011;6173;42.024;23.096;2022-08-19T09:52:50;15.80;;;4.63;;
12220;SDS011;6173;42.024;23.096;2022-08-19T09:55:18;8.97;;;4.70;;
12220;SDS011;6173;42.024;23.096;2022-08-19T09:57:46;10.17;;;4.77;;
12220;SDS011;6173;42.024;23.096;2022-08-19T10:00:13;8.63;;;3.80;;
12220;SDS011;6173;42.024;23.096;2022-08-19T10:02:40;8.60;;;4.33;;
12220;SDS011;6173;42.024;23.096;2022-08-19T10:05:07;12.97;;;4.83;;
12220;SDS011;6173;42.024;23.096;2022-08-19T10:07:51;7.67;;;3.70;;
12220;SDS011;6173;42.024;23.096;2022-08-19T10:10:19;10.80;;;5.00;;
12220;SDS011;6173;42.024;23.096;2022-08-19T10:12:47;11.33;;;4.40;;
12220;SDS011;6173;42.024;23.096;2022-08-19T10:15:14;6.00;;;4.17;;
12220;SDS011;6173;42.024;23.096;2022-08-19T10:17:41;13.90;;;4.53;;
12220;SDS011;6173;42.024;23.096;2022-08-19T10:20:08;11.13;;;4.60;;
12220;SDS011;6173;42.024;23.096;2022-08-19T10:22:36;9.27;;;4.50;;
12220;SDS011;6173;42.024;23.096;2022-08-19T10:25:03;14.00;;;4.97;;
12220;SDS011;6173;42.024;23.096;2022-08-19T10:27:31;13.93;;;4.57;;
12220;SDS011;6173;42.024;23.096;2022-08-19T10:30:00;8.60;;;4.27;;
12220;SDS011;6173;42.024;23.096;2022-08-19T10:32:27;5.77;;;3.77;;
12220;SDS011;6173;42.024;23.096;2022-08-19T10:34:54;8.37;;;3.87;;
12220;SDS011;6173;42.024;23.096;2022-08-19T10:37:22;7.77;;;4.43;;
12220;SDS011;6173;42.024;23.096;2022-08-19T10:39:49;12.50;;;4.20;;
12220;SDS011;6173;42.024;23.096;2022-08-19T10:42:16;11.43;;;4.00;;
12220;SDS011;6173;42.024;23.096;2022-08-19T10:44:43;7.17;;;3.30;;
12220;SDS011;6173;42.024;23.096;2022-08-19T10:47:13;13.07;;;3.73;;
12220;SDS011;6173;42.024;23.096;2022-08-19T10:49:40;11.50;;;3.10;;
12220;SDS011;6173;42.024;23.096;2022-08-19T10:52:20;10.27;;;3.70;;
12220;SDS011;6173;42.024;23.096;2022-08-19T10:54:59;7.90;;;4.70;;
12220;SDS011;6173;42.024;23.096;2022-08-19T10:57:52;4.17;;;2.80;;
12220;SDS011;6173;42.024;23.096;2022-08-19T11:00:19;6.57;;;3.00;;
12220;SDS011;6173;42.024;23.096;2022-08-19T11:02:49;6.57;;;3.30;;
12220;SDS011;6173;42.024;23.096;2022-08-19T11:05:15;5.50;;;3.20;;
12220;SDS011;6173;42.024;23.096;2022-08-19T11:07:43;6.93;;;3.50;;
12220;SDS011;6173;42.024;23.096;2022-08-19T11:10:12;6.13;;;3.10;;
12220;SDS011;6173;42.024;23.096;2022-08-19T11:12:44;3.43;;;3.13;;
12220;SDS011;6173;42.024;23.096;2022-08-19T11:15:12;4.60;;;3.40;;
12220;SDS011;6173;42.024;23.096;2022-08-19T11:17:39;5.97;;;3.40;;
12220;SDS011;6173;42.024;23.096;2022-08-19T11:20:11;6.53;;;3.47;;
12220;SDS011;6173;42.024;23.096;2022-08-19T11:22:39;8.27;;;3.40;;
12220;SDS011;6173;42.024;23.096;2022-08-19T11:25:07;10.63;;;3.53;;
12220;SDS011;6173;42.024;23.096;2022-08-19T11:27:37;8.53;;;3.73;;
12220;SDS011;6173;42.024;23.096;2022-08-19T11:30:05;8.83;;;3.23;;
12220;SDS011;6173;42.024;23.096;2022-08-19T11:32:33;12.50;;;3.63;;
12220;SDS011;6173;42.024;23.096;2022-08-19T11:35:00;6.67;;;3.37;;
12220;SDS011;6173;42.024;23.096;2022-08-19T11:37:28;5.70;;;2.93;;
12220;SDS011;6173;42.024;23.096;2022-08-19T11:39:55;7.40;;;3.77;;
12220;SDS011;6173;42.024;23.096;2022-08-19T11:42:21;9.23;;;3.40;;
12220;SDS011;6173;42.024;23.096;2022-08-19T11:45:06;12.70;;;3.67;;
12220;SDS011;6173;42.024;23.096;2022-08-19T11:47:34;6.47;;;3.90;;
12220;SDS011;6173;42.024;23.096;2022-08-19T11:50:01;9.07;;;5.40;;
12220;SDS011;6173;42.024;23.096;2022-08-19T11:52:30;9.23;;;3.70;;
12220;SDS011;6173;42.024;23.096;2022-08-19T11:54:57;5.43;;;3.07;;
12220;SDS011;6173;42.024;23.096;2022-08-19T11:57:24;11.55;;;3.83;;
12220;SDS011;6173;42.024;23.096;2022-08-19T11:59:51;10.33;;;3.83;;
12220;SDS011;6173;42.024;23.096;2022-08-19T12:02:18;8.90;;;4.30;;
12220;SDS011;6173;42.024;23.096;2022-08-19T12:04:46;9.13;;;3.60;;
12220;SDS011;6173;42.024;23.096;2022-08-19T12:07:13;7.30;;;3.10;;
12220;SDS011;6173;42.024;23.096;2022-08-19T12:09:41;11.20;;;3.30;;
12220;SDS011;6173;42.024;23.096;2022-08-19T12:12:08;10.03;;;3.03;;
12220;SDS011;6173;42.024;23.096;2022-08-19T12:14:35;11.87;;;3.10;;
12220;SDS011;6173;42.024;23.096;2022-08-19T12:17:02;9.67;;;3.13;;
12220;SDS011;6173;42.024;23.096;2022-08-19T12:19:31;10.53;;;3.43;;
12220;SDS011;6173;42.024;23.096;2022-08-19T12:21:59;10.83;;;4.50;;
12220;SDS011;6173;42.024;23.096;2022-08-19T12:24:29;11.07;;;3.83;;
12220;SDS011;6173;42.024;23.096;2022-08-19T12:26:59;8.77;;;3.00;;
12220;SDS011;6173;42.024;23.096;2022-08-19T12:29:27;9.70;;;3.43;;
12220;SDS011;6173;42.024;23.096;2022-08-19T12:31:55;9.07;;;3.27;;
12220;SDS011;6173;42.024;23.096;2022-08-19T12:34:26;11.90;;;3.70;;
12220;SDS011;6173;42.024;23.096;2022-08-19T12:36:55;10.55;;;3.10;;
12220;SDS011;6173;42.024;23.096;2022-08-19T12:39:22;8.27;;;3.45;;
12220;SDS011;6173;42.024;23.096;2022-08-19T12:41:50;7.32;;;3.13;;
12220;SDS011;6173;42.024;23.096;2022-08-19T12:44:18;9.23;;;3.00;;
12220;SDS011;6173;42.024;23.096;2022-08-19T12:46:46;7.72;;;3.20;;
12220;SDS011;6173;42.024;23.096;2022-08-19T12:49:14;8.70;;;2.58;;
12220;SDS011;6173;42.024;23.096;2022-08-19T12:51:41;8.10;;;2.65;;
12220;SDS011;6173;42.024;23.096;2022-08-19T12:54:08;13.95;;;2.55;;
12220;SDS011;6173;42.024;23.096;2022-08-19T12:56:36;5.35;;;2.50;;
12220;SDS011;6173;42.024;23.096;2022-08-19T12:59:03;16.20;;;2.70;;
12220;SDS011;6173;42.024;23.096;2022-08-19T13:01:32;7.78;;;2.92;;
12220;SDS011;6173;42.024;23.096;2022-08-19T13:03:59;25.40;;;3.85;;
12220;SDS011;6173;42.024;23.096;2022-08-19T13:06:25;10.73;;;4.50;;
12220;SDS011;6173;42.024;23.096;2022-08-19T13:08:53;5.35;;;2.33;;
12220;SDS011;6173;42.024;23.096;2022-08-19T13:11:20;14.95;;;2.42;;
12220;SDS011;6173;42.024;23.096;2022-08-19T13:13:49;6.10;;;2.60;;
12220;SDS011;6173;42.024;23.096;2022-08-19T13:16:17;11.60;;;3.00;;
12220;SDS011;6173;42.024;23.096;2022-08-19T13:18:46;4.82;;;2.40;;
12220;SDS011;6173;42.024;23.096;2022-08-19T13:21:14;10.52;;;2.83;;
12220;SDS011;6173;42.024;23.096;2022-08-19T13:23:41;8.98;;;2.95;;
12220;SDS011;6173;42.024;23.096;2022-08-19T13:26:09;8.30;;;2.60;;
12220;SDS011;6173;42.024;23.096;2022-08-19T13:28:36;6.93;;;2.50;;
12220;SDS011;6173;42.024;23.096;2022-08-19T13:31:22;10.07;;;2.70;;
12220;SDS011;6173;42.024;23.096;2022-08-19T13:34:09;7.07;;;2.15;;
12220;SDS011;6173;42.024;23.096;2022-08-19T13:36:36;10.93;;;2.78;;
12220;SDS011;6173;42.024;23.096;2022-08-19T13:39:04;9.45;;;2.47;;
12220;SDS011;6173;42.024;23.096;2022-08-19T13:41:32;8.05;;;2.30;;
12220;SDS011;6173;42.024;23.096;2022-08-19T13:43:59;8.10;;;2.72;;
12220;SDS011;6173;42.024;23.096;2022-08-19T13:46:27;7.35;;;2.45;;
12220;SDS011;6173;42.024;23.096;2022-08-19T13:48:55;6.78;;;2.92;;
12220;SDS011;6173;42.024;23.096;2022-08-19T13:51:23;11.48;;;3.03;;
12220;SDS011;6173;42.024;23.096;2022-08-19T13:53:50;6.90;;;2.90;;
12220;SDS011;6173;42.024;23.096;2022-08-19T13:56:18;29.27;;;3.83;;
12220;SDS011;6173;42.024;23.096;2022-08-19T13:58:45;8.40;;;2.75;;
12220;SDS011;6173;42.024;23.096;2022-08-19T14:01:12;8.07;;;2.40;;
12220;SDS011;6173;42.024;23.096;2022-08-19T14:03:45;10.50;;;2.58;;
12220;SDS011;6173;42.024;23.096;2022-08-19T14:06:12;15.07;;;2.50;;
12220;SDS011;6173;42.024;23.096;2022-08-19T14:08:40;9.50;;;3.08;;
12220;SDS011;6173;42.024;23.096;2022-08-19T14:11:07;10.70;;;3.25;;
12220;SDS011;6173;42.024;23.096;2022-08-19T14:13:34;9.30;;;3.05;;
12220;SDS011;6173;42.024;23.096;2022-08-19T14:16:01;10.15;;;3.33;;
12220;SDS011;6173;42.024;23.096;2022-08-19T14:18:33;7.28;;;3.30;;
12220;SDS011;6173;42.024;23.096;2022-08-19T14:21:00;18.15;;;3.22;;
12220;SDS011;6173;42.024;23.096;2022-08-19T14:23:28;11.77;;;3.05;;
12220;SDS011;6173;42.024;23.096;2022-08-19T14:26:03;14.90;;;3.40;;
12220;SDS011;6173;42.024;23.096;2022-08-19T14:28:31;10.68;;;3.28;;
12220;SDS011;6173;42.024;23.096;2022-08-19T14:30:58;7.25;;;2.53;;
12220;SDS011;6173;42.024;23.096;2022-08-19T14:33:25;9.88;;;2.80;;
12220;SDS011;6173;42.024;23.096;2022-08-19T14:35:52;8.55;;;2.50;;
12220;SDS011;6173;42.024;23.096;2022-08-19T14:38:19;8.27;;;2.90;;
12220;SDS011;6173;42.024;23.096;2022-08-19T14:40:46;14.57;;;2.95;;
12220;SDS011;6173;42.024;23.096;2022-08-19T14:43:15;11.45;;;3.13;;
12220;SDS011;6173;42.024;23.096;2022-08-19T14:45:42;10.77;;;3.00;;
12220;SDS011;6173;42.024;23.096;2022-08-19T14:48:09;18.35;;;3.30;;
12220;SDS011;6173;42.024;23.096;2022-08-19T14:50:36;8.15;;;2.95;;
12220;SDS011;6173;42.024;23.096;2022-08-19T14:53:06;13.27;;;2.95;;